Time;durP1;ratioP1;P1;durP2;ratioP2;P2;SDS_P1;SDS_P2;PMS_P1;PMS_P2;Temp;Humidity;BMP_temperature;BMP_pressure;BME280_temperature;BME280_humidity;BME280_pressure;Samples;Min_cycle;Max_cycle;Signal;HPM_P1;HPM_P2
2021/03/11 00:00:44;;;;;;;0.00;0.00;;;6.40;99.90;;;;;;6212020;23;20367;-67
2021/03/11 00:03:12;;;;;;;0.00;0.00;;;6.50;99.90;;;;;;6212957;23;20419;-67
2021/03/11 00:05:40;;;;;;;0.00;0.00;;;6.50;99.90;;;;;;6213295;23;20388;-67
2021/03/11 00:08:06;;;;;;;0.00;0.00;;;6.60;99.90;;;;;;6212468;23;20375;-67
2021/03/11 00:10:33;;;;;;;0.00;0.00;;;6.60;99.90;;;;;;6213032;23;20745;-67
2021/03/11 00:12:59;;;;;;;0.00;0.00;;;6.60;99.90;;;;;;6212513;23;20383;-67
2021/03/11 00:15:27;;;;;;;0.00;0.00;;;6.60;99.90;;;;;;6213135;23;20372;-67
2021/03/11 00:17:53;;;;;;;0.00;0.00;;;6.60;99.90;;;;;;6212346;23;20443;-67
2021/03/11 00:20:22;;;;;;;0.00;0.00;;;6.70;99.90;;;;;;6213013;23;20397;-67
2021/03/11 00:22:49;;;;;;;0.00;0.00;;;6.70;99.90;;;;;;6212376;23;20395;-68
2021/03/11 00:25:17;;;;;;;0.00;0.00;;;6.70;99.90;;;;;;6212965;23;20387;-68
2021/03/11 00:27:44;;;;;;;0.00;0.00;;;6.70;99.90;;;;;;6213044;23;20462;-67
2021/03/11 00:30:12;;;;;;;0.00;0.00;;;6.70;99.90;;;;;;6212511;23;20368;-67
2021/03/11 00:32:39;;;;;;;0.00;0.00;;;6.80;99.90;;;;;;6213133;23;20385;-67
2021/03/11 00:35:07;;;;;;;0.00;0.00;;;6.90;99.90;;;;;;6212874;23;20430;-67
2021/03/11 00:37:34;;;;;;;0.00;0.00;;;6.80;99.90;;;;;;6212770;23;20384;-67
2021/03/11 00:40:01;;;;;;;0.00;0.00;;;6.90;99.90;;;;;;6213753;23;20443;-67
2021/03/11 00:42:27;;;;;;;0.00;0.00;;;6.90;99.90;;;;;;6214932;23;20371;-67
2021/03/11 00:44:53;;;;;;;0.00;0.00;;;6.90;99.90;;;;;;6214535;23;20371;-67
2021/03/11 00:47:20;;;;;;;0.00;0.00;;;7.00;99.90;;;;;;6214751;23;20371;-67
2021/03/11 00:49:46;;;;;;;0.00;0.00;;;6.90;99.90;;;;;;6213683;23;20866;-67
2021/03/11 00:52:13;;;;;;;0.00;0.00;;;6.90;99.90;;;;;;6214826;23;20375;-67
2021/03/11 00:54:41;;;;;;;0.00;0.00;;;7.00;99.90;;;;;;6214392;23;20462;-67
2021/03/11 00:57:07;;;;;;;0.00;0.00;;;7.00;99.90;;;;;;6215144;23;20390;-67
2021/03/11 00:59:35;;;;;;;0.00;0.00;;;6.90;99.90;;;;;;6214231;23;20396;-67
2021/03/11 01:02:01;;;;;;;0.00;0.00;;;6.90;99.90;;;;;;6214865;23;20380;-67
2021/03/11 01:04:27;;;;;;;0.00;0.00;;;6.90;99.90;;;;;;6214726;23;20376;-67
2021/03/11 01:06:53;;;;;;;0.00;0.00;;;6.90;99.90;;;;;;6214060;23;20842;-67
2021/03/11 01:09:20;;;;;;;0.00;0.00;;;6.70;99.90;;;;;;6214073;23;20367;-67
2021/03/11 01:11:47;;;;;;;0.00;0.00;;;6.70;99.90;;;;;;6214463;23;20379;-67
2021/03/11 01:14:14;;;;;;;0.00;0.00;;;6.60;99.90;;;;;;6214254;23;20413;-67
2021/03/11 01:16:41;;;;;;;0.00;0.00;;;6.60;99.90;;;;;;6214472;23;20368;-67
2021/03/11 01:19:07;;;;;;;0.00;0.00;;;6.50;99.90;;;;;;6214052;23;20387;-67
2021/03/11 01:21:34;;;;;;;0.00;0.00;;;6.40;99.90;;;;;;6214452;23;20379;-67
2021/03/11 01:24:00;;;;;;;0.00;0.00;;;6.40;99.90;;;;;;6214131;23;20437;-67
2021/03/11 01:26:26;;;;;;;0.00;0.00;;;6.40;99.90;;;;;;6214450;23;20387;-67
2021/03/11 01:28:53;;;;;;;0.00;0.00;;;6.30;99.90;;;;;;6213509;23;20368;-67
2021/03/11 01:31:19;;;;;;;0.00;0.00;;;6.30;99.90;;;;;;6214395;23;20676;-68
2021/03/11 01:33:45;;;;;;;0.00;0.00;;;6.30;99.90;;;;;;6214017;23;20707;-67
2021/03/11 01:36:11;;;;;;;0.00;0.00;;;6.30;99.90;;;;;;6214287;23;20707;-67
2021/03/11 01:38:37;;;;;;;0.00;0.00;;;6.30;99.90;;;;;;6213164;23;20917;-67
2021/03/11 01:41:03;;;;;;;0.00;0.00;;;6.40;99.90;;;;;;6214116;23;20376;-67
2021/03/11 01:43:30;;;;;;;0.00;0.00;;;6.30;99.90;;;;;;6214050;23;20372;-67
2021/03/11 01:45:57;;;;;;;0.00;0.00;;;6.30;99.90;;;;;;6214082;23;20732;-67
2021/03/11 01:48:23;;;;;;;0.00;0.00;;;6.30;99.90;;;;;;6214132;23;20372;-67
2021/03/11 01:50:49;;;;;;;0.00;0.00;;;6.30;99.90;;;;;;6214114;23;20382;-67
2021/03/11 01:53:16;;;;;;;0.00;0.00;;;6.30;99.90;;;;;;6214466;23;20410;-68
2021/03/11 01:55:42;;;;;;;0.00;0.00;;;6.40;99.90;;;;;;6213798;23;20438;-68
2021/03/11 01:58:09;;;;;;;0.00;0.00;;;6.40;99.90;;;;;;6213722;23;20434;-67
2021/03/11 02:00:35;;;;;;;0.00;0.00;;;6.40;99.90;;;;;;6213735;23;20391;-67
2021/03/11 02:03:04;;;;;;;0.00;0.00;;;6.40;99.90;;;;;;6214005;23;20372;-67
2021/03/11 02:05:30;;;;;;;0.00;0.00;;;6.50;99.90;;;;;;6214070;23;20426;-67
2021/03/11 02:07:56;;;;;;;0.00;0.00;;;6.60;99.90;;;;;;6213670;23;20387;-68
2021/03/11 02:10:24;;;;;;;0.00;0.00;;;6.60;99.90;;;;;;6213316;23;20850;-67
2021/03/11 02:13:27;;;;;;;0.00;0.00;;;6.70;99.90;;;;;;6213586;23;20387;-67
2021/03/11 02:16:01;;;;;;;0.00;0.00;;;6.80;99.90;;;;;;6214190;23;20375;-67
2021/03/11 02:18:34;;;;;;;0.00;0.00;;;6.80;99.90;;;;;;6213049;23;20384;-67
2021/03/11 02:21:03;;;;;;;0.00;0.00;;;6.90;99.90;;;;;;6213814;23;20375;-67
2021/03/11 02:23:54;;;;;;;0.00;0.00;;;6.90;99.90;;;;;;6213682;23;20930;-67
2021/03/11 02:27:05;;;;;;;0.00;0.00;;;6.90;99.90;;;;;;6213761;23;20689;-67
2021/03/11 02:29:34;;;;;;;0.00;0.00;;;7.00;99.90;;;;;;6168172;23;20385;-67
2021/03/11 02:32:03;;;;;;;0.00;0.00;;;7.10;99.90;;;;;;6213757;23;20372;-68
2021/03/11 02:34:33;;;;;;;0.00;0.00;;;7.10;99.90;;;;;;6213268;23;20384;-67
2021/03/11 02:37:03;;;;;;;0.00;0.00;;;7.10;99.90;;;;;;6213950;23;20372;-68
2021/03/11 02:39:30;;;;;;;0.00;0.00;;;7.10;99.90;;;;;;6213538;23;20419;-67
2021/03/11 02:41:59;;;;;;;0.00;0.00;;;7.20;99.90;;;;;;6214558;23;20371;-67
2021/03/11 02:44:26;;;;;;;0.00;0.00;;;7.20;99.90;;;;;;6213143;23;20871;-68
2021/03/11 02:46:54;;;;;;;0.00;0.00;;;7.30;99.90;;;;;;6213503;23;20861;-68
2021/03/11 02:49:22;;;;;;;0.00;0.00;;;7.30;99.90;;;;;;6212844;23;20364;-67
2021/03/11 02:51:49;;;;;;;0.00;0.00;;;7.30;99.90;;;;;;6213414;23;20372;-67
2021/03/11 02:54:17;;;;;;;0.00;0.00;;;7.40;99.90;;;;;;6213389;23;20383;-67
2021/03/11 02:56:44;;;;;;;0.00;0.00;;;7.40;99.90;;;;;;6213315;23;20378;-67
2021/03/11 02:59:11;;;;;;;0.00;0.00;;;7.50;99.90;;;;;;6213154;23;20479;-67
2021/03/11 03:01:39;;;;;;;0.00;0.00;;;7.40;99.90;;;;;;6213096;23;20380;-67
2021/03/11 03:04:06;;;;;;;0.00;0.00;;;7.40;99.90;;;;;;6213409;23;20391;-67
2021/03/11 03:06:33;;;;;;;0.00;0.00;;;7.50;99.90;;;;;;6213170;23;20684;-67
2021/03/11 03:09:00;;;;;;;0.00;0.00;;;7.50;99.90;;;;;;6212623;23;20719;-68
2021/03/11 03:11:26;;;;;;;0.00;0.00;;;7.50;99.90;;;;;;6213554;23;20387;-67
2021/03/11 03:13:53;;;;;;;0.00;0.00;;;7.50;99.90;;;;;;6213030;23;20382;-67
2021/03/11 03:16:20;;;;;;;0.00;0.00;;;7.50;99.90;;;;;;6213374;23;20429;-67
2021/03/11 03:18:46;;;;;;;0.00;0.00;;;7.50;99.90;;;;;;6212441;23;20384;-67
2021/03/11 03:21:14;;;;;;;0.00;0.00;;;7.40;99.90;;;;;;6213291;23;20715;-67
2021/03/11 03:23:41;;;;;;;0.00;0.00;;;7.50;99.90;;;;;;6213263;23;20384;-67
2021/03/11 03:26:07;;;;;;;0.00;0.00;;;7.50;99.90;;;;;;6213274;23;20402;-67
2021/03/11 03:28:34;;;;;;;0.00;0.00;;;7.50;99.90;;;;;;6212684;23;20371;-68
2021/03/11 03:31:01;;;;;;;0.00;0.00;;;7.50;99.90;;;;;;6212822;23;20858;-67
2021/03/11 03:33:27;;;;;;;0.00;0.00;;;7.40;99.90;;;;;;6213060;23;20680;-67
2021/03/11 03:35:53;;;;;;;0.00;0.00;;;7.30;99.90;;;;;;6213277;23;20379;-67
2021/03/11 03:38:20;;;;;;;0.00;0.00;;;7.40;99.90;;;;;;6213299;23;20410;-67
2021/03/11 03:40:47;;;;;;;0.00;0.00;;;7.30;99.90;;;;;;6213039;23;20445;-68
2021/03/11 03:43:18;;;;;;;0.00;0.00;;;7.30;99.90;;;;;;6213891;23;20375;-68
2021/03/11 03:45:47;;;;;;;0.00;0.00;;;7.20;99.90;;;;;;6212243;23;20384;-67
2021/03/11 03:48:19;;;;;;;0.00;0.00;;;7.20;99.90;;;;;;6212050;23;20381;-68
2021/03/11 03:50:47;;;;;;;0.00;0.00;;;7.10;99.90;;;;;;6213662;23;20376;-68
2021/03/11 03:53:19;;;;;;;0.00;0.00;;;7.10;99.90;;;;;;6213221;23;20387;-67
2021/03/11 03:55:50;;;;;;;0.00;0.00;;;7.10;99.90;;;;;;6212788;23;20902;-67
2021/03/11 03:58:17;;;;;;;0.00;0.00;;;7.10;99.90;;;;;;6211925;23;20749;-67
2021/03/11 04:00:44;;;;;;;0.00;0.00;;;7.10;99.90;;;;;;6212759;23;20435;-67
2021/03/11 04:03:11;;;;;;;0.00;0.00;;;7.00;99.90;;;;;;6212645;23;20387;-67
2021/03/11 04:05:38;;;;;;;0.00;0.00;;;7.10;99.90;;;;;;6212929;23;20850;-67
2021/03/11 04:08:06;;;;;;;0.00;0.00;;;7.00;99.90;;;;;;6212968;23;20380;-67
2021/03/11 04:10:32;;;;;;;0.00;0.00;;;6.90;99.90;;;;;;6212608;23;20892;-67
2021/03/11 04:13:00;;;;;;;0.00;0.00;;;7.00;1.00;;;;;;6213020;23;20376;-68
2021/03/11 04:15:26;;;;;;;0.00;0.00;;;7.00;1.00;;;;;;6215019;23;21019;-68
2021/03/11 04:17:53;;;;;;;0.00;0.00;;;7.00;1.00;;;;;;6214995;23;20383;-67
2021/03/11 04:20:20;;;;;;;0.00;0.00;;;6.90;1.00;;;;;;6214061;23;20969;-67
2021/03/11 04:22:46;;;;;;;0.00;0.00;;;6.90;1.00;;;;;;6214721;23;20901;-67
2021/03/11 04:25:13;;;;;;;0.00;0.00;;;6.90;1.00;;;;;;6214765;23;20371;-67
2021/03/11 04:27:39;;;;;;;0.00;0.00;;;6.90;1.00;;;;;;6214984;23;20375;-68
2021/03/11 04:30:07;;;;;;;0.00;0.00;;;6.90;1.00;;;;;;6214193;23;20368;-67
2021/03/11 04:32:35;;;;;;;0.00;0.00;;;6.90;1.00;;;;;;6214970;23;20711;-67
2021/03/11 04:35:02;;;;;;;0.00;0.00;;;6.80;1.00;;;;;;6214897;23;20375;-68
2021/03/11 04:37:28;;;;;;;0.00;0.00;;;6.90;1.00;;;;;;6213656;23;20892;-67
2021/03/11 04:39:55;;;;;;;0.00;0.00;;;6.90;1.00;;;;;;6212568;23;20387;-68
2021/03/11 04:42:21;;;;;;;0.00;0.00;;;7.00;1.00;;;;;;6214683;23;20376;-67
2021/03/11 04:44:48;;;;;;;0.00;0.00;;;7.00;1.00;;;;;;6215025;23;20383;-68
2021/03/11 04:47:15;;;;;;;0.00;0.00;;;7.00;1.00;;;;;;6215036;23;20387;-67
2021/03/11 04:49:42;;;;;;;0.00;0.00;;;7.10;1.00;;;;;;6213518;23;20375;-68
2021/03/11 04:52:09;;;;;;;0.00;0.00;;;7.10;1.00;;;;;;6214220;23;20898;-68
2021/03/11 04:54:35;;;;;;;0.00;0.00;;;7.10;1.00;;;;;;6214900;23;20443;-67
2021/03/11 04:57:02;;;;;;;0.00;0.00;;;7.20;1.00;;;;;;6214406;23;20957;-68
2021/03/11 04:59:30;;;;;;;0.00;0.00;;;7.20;1.00;;;;;;6214496;23;20442;-68
2021/03/11 05:01:58;;;;;;;0.00;0.00;;;7.30;1.00;;;;;;6214549;23;20379;-68
2021/03/11 05:04:26;;;;;;;0.00;0.00;;;7.30;1.00;;;;;;6214446;23;20391;-67
2021/03/11 05:06:52;;;;;;;0.00;0.00;;;7.30;1.00;;;;;;6214553;23;20375;-68
2021/03/11 05:09:18;;;;;;;0.00;0.00;;;7.40;1.00;;;;;;6213799;23;20372;-68
2021/03/11 05:11:45;;;;;;;0.00;0.00;;;7.40;1.00;;;;;;6214424;23;20382;-68
2021/03/11 05:14:11;;;;;;;0.00;0.00;;;7.50;99.90;;;;;;6210413;23;20379;-68
2021/03/11 05:16:37;;;;;;;0.00;0.00;;;7.50;99.90;;;;;;6214099;23;20382;-67
2021/03/11 05:19:04;;;;;;;0.00;0.00;;;7.60;99.90;;;;;;6213900;23;20434;-67
2021/03/11 05:21:31;;;;;;;0.00;0.00;;;7.60;99.90;;;;;;6213736;23;20380;-68
2021/03/11 05:23:57;;;;;;;0.00;0.00;;;7.50;99.90;;;;;;6213992;23;20372;-67
2021/03/11 05:26:23;;;;;;;0.00;0.00;;;7.60;99.90;;;;;;6214031;23;20384;-67
2021/03/11 05:28:49;;;;;;;0.00;0.00;;;7.50;99.90;;;;;;6214271;23;20734;-68
2021/03/11 05:31:15;;;;;;;0.00;0.00;;;7.50;99.90;;;;;;6214087;23;20372;-68
2021/03/11 05:33:42;;;;;;;0.00;0.00;;;7.50;1.00;;;;;;6212826;23;20380;-67
2021/03/11 05:36:08;;;;;;;0.00;0.00;;;7.50;1.00;;;;;;6213918;23;20383;-68
2021/03/11 05:38:35;;;;;;;0.00;0.00;;;7.40;1.00;;;;;;6213709;23;20383;-67
2021/03/11 05:41:02;;;;;;;0.00;0.00;;;7.40;1.00;;;;;;6213774;23;20876;-67
2021/03/11 05:43:29;;;;;;;0.00;0.00;;;7.40;1.00;;;;;;6214124;23;20376;-67
2021/03/11 05:45:56;;;;;;;0.00;0.00;;;7.40;1.00;;;;;;6214035;23;20419;-68
2021/03/11 05:48:25;;;;;;;0.00;0.00;;;7.40;1.00;;;;;;6213051;23;20392;-67
2021/03/11 05:50:52;;;;;;;0.00;0.00;;;7.40;1.00;;;;;;6213850;23;20378;-67
2021/03/11 05:53:19;;;;;;;0.00;0.00;;;7.40;1.00;;;;;;6213663;23;20380;-67
2021/03/11 05:55:47;;;;;;;0.00;0.00;;;7.30;1.00;;;;;;6213649;23;20379;-67
2021/03/11 05:58:18;;;;;;;0.00;0.00;;;7.40;1.00;;;;;;6213561;23;20386;-67
2021/03/11 06:00:44;;;;;;;0.00;0.00;;;7.40;1.00;;;;;;6213477;23;20972;-67
2021/03/11 06:03:11;;;;;;;0.00;0.00;;;7.40;1.00;;;;;;6213497;23;20376;-67
2021/03/11 06:05:38;;;;;;;0.00;0.00;;;7.40;1.00;;;;;;6213410;23;20372;-67
2021/03/11 06:08:08;;;;;;;0.00;0.00;;;7.40;1.00;;;;;;6213537;23;20379;-67
2021/03/11 06:10:35;;;;;;;0.00;0.00;;;7.40;1.00;;;;;;6213111;23;20380;-67
2021/03/11 06:13:04;;;;;;;0.00;0.00;;;7.40;1.00;;;;;;6213309;23;20402;-67
2021/03/11 06:15:32;;;;;;;0.00;0.00;;;7.40;1.00;;;;;;6213149;23;20432;-67
2021/03/11 06:17:59;;;;;;;0.00;0.00;;;7.50;1.00;;;;;;6213498;23;20455;-67
2021/03/11 06:20:26;;;;;;;0.00;0.00;;;7.60;1.00;;;;;;6212882;23;20388;-67
2021/03/11 06:22:53;;;;;;;0.00;0.00;;;7.60;1.00;;;;;;6213761;23;20417;-67
2021/03/11 06:25:20;;;;;;;0.00;0.00;;;7.60;1.00;;;;;;6213315;23;20386;-68
2021/03/11 06:27:46;;;;;;;0.00;0.00;;;7.60;1.00;;;;;;6205922;23;20379;-66
2021/03/11 06:30:32;;;;;;;0.00;0.00;;;7.70;1.00;;;;;;6212797;23;20376;-66
2021/03/11 06:33:00;;;;;;;0.00;0.00;;;7.60;1.00;;;;;;6212962;23;20403;-67
2021/03/11 06:35:27;;;;;;;0.00;0.00;;;7.70;1.00;;;;;;6212830;23;20770;-66
2021/03/11 06:37:53;;;;;;;0.00;0.00;;;7.70;1.00;;;;;;6212022;23;20393;-67
2021/03/11 06:40:21;;;;;;;0.00;0.00;;;7.70;1.00;;;;;;6212306;23;20492;-67
2021/03/11 06:42:49;;;;;;;0.00;0.00;;;7.80;1.00;;;;;;6212801;23;20384;-66
2021/03/11 06:45:24;;;;;;;0.00;0.00;;;7.80;1.00;;;;;;6212788;23;20383;-67
2021/03/11 06:47:52;;;;;;;0.00;0.00;;;7.80;1.00;;;;;;6211548;23;20375;-66
2021/03/11 06:50:22;;;;;;;0.00;0.00;;;7.90;1.00;;;;;;6210723;23;20367;-66
2021/03/11 06:53:01;;;;;;;0.00;0.00;;;7.90;1.00;;;;;;6212389;23;20384;-66
2021/03/11 06:55:27;;;;;;;0.00;0.00;;;7.90;1.00;;;;;;6212350;23;20455;-68
2021/03/11 06:57:53;;;;;;;0.00;0.00;;;8.00;1.00;;;;;;6212333;23;20386;-67
2021/03/11 07:00:22;;;;;;;0.00;0.00;;;8.00;1.00;;;;;;6211909;23;20388;-67
2021/03/11 07:02:53;;;;;;;0.00;0.00;;;8.00;1.00;;;;;;6211922;23;20371;-67
2021/03/11 07:05:21;;;;;;;0.00;0.00;;;8.10;1.00;;;;;;6212395;23;20379;-67
2021/03/11 07:07:48;;;;;;;0.00;0.00;;;8.10;1.00;;;;;;6212475;23;20384;-67
2021/03/11 07:10:25;;;;;;;0.00;0.00;;;8.10;1.00;;;;;;6212179;23;20428;-67
2021/03/11 07:12:52;;;;;;;0.00;0.00;;;8.20;1.00;;;;;;6212237;23;20735;-67
2021/03/11 07:15:20;;;;;;;0.00;0.00;;;8.20;1.00;;;;;;6212921;23;20379;-68
2021/03/11 07:17:47;;;;;;;0.00;0.00;;;8.20;1.00;;;;;;6212762;23;20386;-69
2021/03/11 07:20:15;;;;;;;0.00;0.00;;;8.30;1.00;;;;;;6212025;23;20450;-68
2021/03/11 07:22:43;;;;;;;0.00;0.00;;;8.30;1.00;;;;;;6212264;23;20699;-68
2021/03/11 07:25:26;;;;;;;0.00;0.00;;;8.30;1.00;;;;;;6212395;23;20379;-67
2021/03/11 07:27:54;;;;;;;0.00;0.00;;;8.30;1.00;;;;;;6211919;23;20376;-68
2021/03/11 07:30:22;;;;;;;0.00;0.00;;;8.40;1.00;;;;;;6211994;23;20367;-68
2021/03/11 07:32:48;;;;;;;0.00;0.00;;;8.40;1.00;;;;;;6212197;23;20384;-69
2021/03/11 07:35:17;;;;;;;0.00;0.00;;;8.40;1.00;;;;;;6212233;23;20379;-67
2021/03/11 07:37:48;;;;;;;0.00;0.00;;;8.40;1.00;;;;;;6212166;23;20433;-68
2021/03/11 07:40:16;;;;;;;0.00;0.00;;;9.30;1.00;;;;;;6212436;23;20750;-68
2021/03/11 07:42:42;;;;;;;0.00;0.00;;;8.50;1.00;;;;;;6211921;23;20707;-67
2021/03/11 07:45:12;;;;;;;0.00;0.00;;;8.50;1.00;;;;;;6212524;23;20379;-66
2021/03/11 07:47:39;;;;;;;0.00;0.00;;;8.40;1.00;;;;;;6212428;23;20379;-67
2021/03/11 07:50:09;;;;;;;0.00;0.00;;;8.40;1.00;;;;;;6212331;23;20379;-67
2021/03/11 07:52:37;;;;;;;0.00;0.00;;;8.40;1.00;;;;;;6213130;23;20375;-67
2021/03/11 07:55:04;;;;;;;0.00;0.00;;;8.50;1.00;;;;;;6212979;23;20376;-66
2021/03/11 07:57:32;;;;;;;0.00;0.00;;;8.50;1.00;;;;;;6213384;23;20714;-67
2021/03/11 07:59:59;;;;;;;0.00;0.00;;;8.60;1.00;;;;;;6212519;23;20388;-69
2021/03/11 08:02:26;;;;;;;0.00;0.00;;;8.80;1.00;;;;;;6212856;23;20375;-67
2021/03/11 08:04:53;;;;;;;0.00;0.00;;;8.90;1.00;;;;;;6212333;23;20379;-66
2021/03/11 08:07:21;;;;;;;0.00;0.00;;;9.10;1.00;;;;;;6211950;23;20865;-68
2021/03/11 08:09:49;;;;;;;0.00;0.00;;;9.20;1.00;;;;;;6212289;23;20501;-66
2021/03/11 08:12:29;;;;;;;0.00;0.00;;;9.30;1.00;;;;;;6212030;23;20403;-67
2021/03/11 08:14:56;;;;;;;0.00;0.00;;;9.50;1.00;;;;;;6212015;23;20709;-67
2021/03/11 08:17:43;;;;;;;0.00;0.00;;;9.60;1.00;;;;;;6211808;23;20726;-67
2021/03/11 08:20:37;;;;;;;0.00;0.00;;;9.80;1.00;;;;;;6210285;23;20410;-67
2021/03/11 08:23:06;;;;;;;0.00;0.00;;;9.90;1.00;;;;;;6212481;23;20380;-67
2021/03/11 08:25:41;;;;;;;0.00;0.00;;;9.90;99.90;;;;;;6212553;23;20379;-67
2021/03/11 08:28:35;;;;;;;0.00;0.00;;;10.00;99.90;;;;;;6213448;23;20430;-67
2021/03/11 08:31:03;;;;;;;0.00;0.00;;;9.90;99.90;;;;;;6213596;23;20399;-69
2021/03/11 08:33:47;;;;;;;0.00;0.00;;;10.00;99.90;;;;;;6214562;23;20367;-67
2021/03/11 08:36:39;;;;;;;0.00;0.00;;;9.80;99.90;;;;;;6214088;23;20450;-67
2021/03/11 08:39:36;;;;;;;0.00;0.00;;;9.80;99.90;;;;;;6213374;23;20738;-67
2021/03/11 08:42:46;;;;;;;0.00;0.00;;;9.80;99.90;;;;;;6212211;23;20450;-67
2021/03/11 08:45:33;;;;;;;0.00;0.00;;;9.80;99.90;;;;;;6212065;23;20407;-67
2021/03/11 08:48:12;;;;;;;0.00;0.00;;;9.80;99.90;;;;;;6212353;23;20382;-68
2021/03/11 08:50:39;;;;;;;0.00;0.00;;;9.80;99.90;;;;;;6210947;23;20842;-69
2021/03/11 08:53:06;;;;;;;0.00;0.00;;;9.80;99.90;;;;;;6212108;23;20376;-69
2021/03/11 08:55:34;;;;;;;0.00;0.00;;;9.90;99.90;;;;;;6211353;23;20376;-67
2021/03/11 08:58:01;;;;;;;0.00;0.00;;;10.00;99.90;;;;;;6212197;23;20430;-67
2021/03/11 09:01:00;;;;;;;0.00;0.00;;;9.90;99.90;;;;;;6211319;23;20387;-69
2021/03/11 09:03:47;;;;;;;0.00;0.00;;;10.00;99.90;;;;;;6214344;23;20846;-69
2021/03/11 09:06:14;;;;;;;0.00;0.00;;;10.00;99.90;;;;;;6214296;23;20838;-70
2021/03/11 09:08:49;;;;;;;0.00;0.00;;;10.20;99.90;;;;;;6212646;23;20870;-70
2021/03/11 09:11:20;;;;;;;0.00;0.00;;;10.40;99.90;;;;;;6214091;23;20381;-68
2021/03/11 09:13:47;;;;;;;0.00;0.00;;;10.60;99.90;;;;;;6213288;23;20391;-68
2021/03/11 09:16:14;;;;;;;0.00;0.00;;;10.80;99.90;;;;;;6214039;23;20387;-67
2021/03/11 09:18:40;;;;;;;0.00;0.00;;;10.90;99.90;;;;;;6212961;23;20382;-67
2021/03/11 09:21:08;;;;;;;0.00;0.00;;;11.10;99.90;;;;;;6213641;23;20392;-67
2021/03/11 09:23:36;;;;;;;0.00;0.00;;;11.20;99.90;;;;;;6213175;23;20843;-67
2021/03/11 09:26:02;;;;;;;0.00;0.00;;;11.30;99.90;;;;;;6213549;23;20774;-68
2021/03/11 09:28:29;;;;;;;0.00;0.00;;;11.10;99.90;;;;;;6213419;23;20375;-68
2021/03/11 09:30:55;;;;;;;0.00;0.00;;;11.00;99.90;;;;;;6213017;23;20378;-68
2021/03/11 09:33:22;;;;;;;0.00;0.00;;;10.80;99.90;;;;;;6213401;23;20850;-67
2021/03/11 09:35:49;;;;;;;0.00;0.00;;;10.70;99.90;;;;;;6213868;23;20379;-66
2021/03/11 09:38:20;;;;;;;0.00;0.00;;;10.60;99.90;;;;;;6212700;23;20411;-66
2021/03/11 09:40:49;;;;;;;0.00;0.00;;;10.40;99.90;;;;;;6212451;23;20392;-66
2021/03/11 09:43:25;;;;;;;0.00;0.00;;;10.20;99.90;;;;;;6213930;23;20376;-66
2021/03/11 09:45:53;;;;;;;0.00;0.00;;;10.20;99.90;;;;;;6213441;23;20376;-67
2021/03/11 09:48:23;;;;;;;0.00;0.00;;;10.10;99.90;;;;;;6208732;23;20416;-67
2021/03/11 09:50:58;;;;;;;0.00;0.00;;;10.10;99.90;;;;;;6212724;23;20584;-66
2021/03/11 09:53:32;;;;;;;0.00;0.00;;;10.10;99.90;;;;;;6213470;23;20371;-68
2021/03/11 09:55:58;;;;;;;0.00;0.00;;;10.00;99.90;;;;;;6214068;23;20375;-66
2021/03/11 09:58:24;;;;;;;0.00;0.00;;;10.00;99.90;;;;;;6213304;23;20371;-66
2021/03/11 10:00:51;;;;;;;0.00;0.00;;;10.00;99.90;;;;;;6212905;23;20909;-67
2021/03/11 10:03:20;;;;;;;0.00;0.00;;;10.10;99.90;;;;;;6212959;23;20452;-66
2021/03/11 10:05:52;;;;;;;0.00;0.00;;;10.20;99.90;;;;;;6213265;23;20391;-68
2021/03/11 10:08:30;;;;;;;0.00;0.00;;;10.50;99.90;;;;;;6213325;23;20375;-67
2021/03/11 10:11:01;;;;;;;0.00;0.00;;;10.70;99.90;;;;;;6212682;23;20378;-68
2021/03/11 10:13:39;;;;;;;0.00;0.00;;;10.90;99.90;;;;;;6212878;23;20383;-68
2021/03/11 10:16:06;;;;;;;0.00;0.00;;;11.10;99.90;;;;;;6213092;23;20782;-68
2021/03/11 10:18:33;;;;;;;0.00;0.00;;;11.20;99.90;;;;;;6212872;23;20817;-67
2021/03/11 10:21:01;;;;;;;0.00;0.00;;;11.30;99.90;;;;;;6211588;23;20719;-68
2021/03/11 10:23:27;;;;;;;0.00;0.00;;;11.40;99.90;;;;;;6212837;23;20425;-68
2021/03/11 10:26:14;;;;;;;0.00;0.00;;;11.60;99.90;;;;;;6213277;23;20899;-67
2021/03/11 10:28:42;;;;;;;0.00;0.00;;;11.80;99.90;;;;;;6210557;23;20383;-66
2021/03/11 10:31:09;;;;;;;0.00;0.00;;;11.80;99.90;;;;;;6211331;23;20865;-66
2021/03/11 10:33:36;;;;;;;0.00;0.00;;;11.70;99.90;;;;;;6213616;23;20376;-66
2021/03/11 10:36:18;;;;;;;0.00;0.00;;;11.90;99.90;;;;;;6213325;23;20375;-67
2021/03/11 10:39:04;;;;;;;0.00;0.00;;;11.80;99.90;;;;;;6211877;23;20736;-65
2021/03/11 10:41:31;;;;;;;0.00;0.00;;;11.80;99.90;;;;;;6212919;23;20820;-66
2021/03/11 10:44:10;;;;;;;0.00;0.00;;;12.00;99.90;;;;;;6213264;23;20684;-65
2021/03/11 10:46:36;;;;;;;0.00;0.00;;;12.20;99.90;;;;;;6212874;23;20375;-65
2021/03/11 10:49:02;;;;;;;0.00;0.00;;;12.30;99.90;;;;;;6213435;23;20448;-67
2021/03/11 10:51:31;;;;;;;0.00;0.00;;;12.30;99.90;;;;;;6212749;23;20375;-68
2021/03/11 10:53:59;;;;;;;0.00;0.00;;;12.60;99.90;;;;;;6213689;23;20380;-67
2021/03/11 10:56:26;;;;;;;0.00;0.00;;;12.80;99.90;;;;;;6214284;23;20448;-66
2021/03/11 10:59:04;;;;;;;0.00;0.00;;;13.10;99.90;;;;;;6212056;23;20379;-67
2021/03/11 11:01:31;;;;;;;0.00;0.00;;;13.00;99.90;;;;;;6213023;23;20434;-66
2021/03/11 11:03:59;;;;;;;0.00;0.00;;;12.90;99.90;;;;;;6213983;23;20430;-68
2021/03/11 11:06:27;;;;;;;0.00;0.00;;;13.00;99.90;;;;;;6213904;23;20378;-66
2021/03/11 11:08:54;;;;;;;0.00;0.00;;;13.10;99.90;;;;;;6212130;23;20430;-67
2021/03/11 11:11:21;;;;;;;0.00;0.00;;;13.10;99.90;;;;;;6213834;23;20374;-66
2021/03/11 11:13:48;;;;;;;0.00;0.00;;;12.80;99.90;;;;;;6213198;23;20380;-65
2021/03/11 11:16:15;;;;;;;0.00;0.00;;;12.80;99.90;;;;;;6213086;23;20380;-65
2021/03/11 11:18:41;;;;;;;0.00;0.00;;;12.80;99.90;;;;;;6212074;23;20706;-66
2021/03/11 11:21:08;;;;;;;0.00;0.00;;;12.90;99.90;;;;;;6212720;23;20711;-66
2021/03/11 11:23:35;;;;;;;0.00;0.00;;;12.90;99.90;;;;;;6212720;23;20358;-66
2021/03/11 11:26:02;;;;;;;0.00;0.00;;;12.80;99.90;;;;;;6212802;23;20375;-66
2021/03/11 11:28:29;;;;;;;0.00;0.00;;;12.80;99.90;;;;;;6212264;23;20376;-66
2021/03/11 11:30:55;;;;;;;0.00;0.00;;;12.80;99.90;;;;;;6212309;23;20371;-65
2021/03/11 11:33:21;;;;;;;0.00;0.00;;;12.90;99.90;;;;;;6212407;23;20870;-66
2021/03/11 11:35:49;;;;;;;0.00;0.00;;;13.10;99.90;;;;;;6212807;23;20438;-67
2021/03/11 11:38:16;;;;;;;0.00;0.00;;;13.30;99.90;;;;;;6211997;23;20371;-66
2021/03/11 11:40:42;;;;;;;0.00;0.00;;;13.30;99.90;;;;;;6211197;23;20418;-66
2021/03/11 11:43:09;;;;;;;0.00;0.00;;;13.40;99.90;;;;;;6212794;23;20394;-66
2021/03/11 11:45:36;;;;;;;0.00;0.00;;;13.20;99.90;;;;;;6212410;23;20387;-65
2021/03/11 11:48:02;;;;;;;0.00;0.00;;;13.10;99.90;;;;;;6212446;23;20371;-65
2021/03/11 11:50:28;;;;;;;0.00;0.00;;;13.00;99.90;;;;;;6212756;23;20375;-65
2021/03/11 11:52:55;;;;;;;0.00;0.00;;;13.20;99.90;;;;;;6212674;23;20850;-64
2021/03/11 11:55:21;;;;;;;0.00;0.00;;;13.20;99.90;;;;;;6213259;23;20406;-65
2021/03/11 11:57:47;;;;;;;0.00;0.00;;;13.20;99.90;;;;;;6212105;23;20383;-65
2021/03/11 12:00:17;;;;;;;0.00;0.00;;;13.50;99.90;;;;;;6212107;23;20391;-65
2021/03/11 12:02:43;;;;;;;0.00;0.00;;;13.80;99.90;;;;;;6212078;23;20387;-65
2021/03/11 12:05:10;;;;;;;0.00;0.00;;;13.90;99.90;;;;;;6213412;23;20494;-65
2021/03/11 12:07:37;;;;;;;0.00;0.00;;;13.80;99.90;;;;;;6212731;23;20707;-67
2021/03/11 12:10:05;;;;;;;0.00;0.00;;;13.60;99.90;;;;;;6211716;23;20382;-67
2021/03/11 12:12:32;;;;;;;0.00;0.00;;;13.80;99.90;;;;;;6210422;23;20421;-66
2021/03/11 12:14:58;;;;;;;0.00;0.00;;;13.90;99.90;;;;;;6210601;23;20824;-67
2021/03/11 12:17:25;;;;;;;0.00;0.00;;;14.00;99.90;;;;;;6213527;23;20382;-67
2021/03/11 12:19:51;;;;;;;0.00;0.00;;;14.00;99.90;;;;;;6213056;23;20434;-67
2021/03/11 12:22:17;;;;;;;0.00;0.00;;;13.80;99.90;;;;;;6213372;23;20375;-67
2021/03/11 12:24:43;;;;;;;0.00;0.00;;;13.60;99.90;;;;;;6211443;23;20426;-68
2021/03/11 12:27:10;;;;;;;0.00;0.00;;;13.70;99.90;;;;;;6212589;23;20718;-67
2021/03/11 12:29:36;;;;;;;0.00;0.00;;;14.00;99.90;;;;;;6212021;23;20375;-67
2021/03/11 12:32:03;;;;;;;0.00;0.00;;;14.20;99.90;;;;;;6212475;23;20379;-68
2021/03/11 12:34:30;;;;;;;0.00;0.00;;;13.90;99.90;;;;;;6212797;23;20398;-69
2021/03/11 12:36:56;;;;;;;0.00;0.00;;;13.90;99.90;;;;;;6214093;23;20929;-68
2021/03/11 12:39:22;;;;;;;0.00;0.00;;;13.70;99.90;;;;;;6213523;23;20699;-67
2021/03/11 12:41:49;;;;;;;0.00;0.00;;;13.40;99.90;;;;;;6214459;23;20486;-67
2021/03/11 12:44:15;;;;;;;0.00;0.00;;;13.30;99.90;;;;;;6214470;23;20382;-68
2021/03/11 12:46:41;;;;;;;0.00;0.00;;;13.30;99.90;;;;;;6214540;23;20441;-67
2021/03/11 12:49:07;;;;;;;0.00;0.00;;;13.60;99.90;;;;;;6213294;23;20390;-67
2021/03/11 12:51:35;;;;;;;0.00;0.00;;;13.90;99.90;;;;;;6214360;23;20438;-67
2021/03/11 12:54:01;;;;;;;0.00;0.00;;;13.90;99.90;;;;;;6213947;23;20379;-67
2021/03/11 12:56:27;;;;;;;0.00;0.00;;;14.20;99.90;;;;;;6213853;23;20941;-67
2021/03/11 12:58:53;;;;;;;0.00;0.00;;;14.10;99.90;;;;;;6213503;23;20680;-68
2021/03/11 13:01:19;;;;;;;0.00;0.00;;;14.00;99.90;;;;;;6213875;23;20440;-67
2021/03/11 13:03:46;;;;;;;0.00;0.00;;;13.80;99.90;;;;;;6214405;23;20379;-67
2021/03/11 13:06:12;;;;;;;0.00;0.00;;;13.50;99.90;;;;;;6214726;23;20383;-66